Aérodrome :
LOGIN :

S'inscrire | Disclaimer

   EN    FR    IT 

 










Légende :    VFR   VFR Marginal   IFR   IFR Intensif   IFR Très Intensif
Visi : 
Plafond : 
>= 8 km
>= 3000ft
5 à 8 km
1000 à 3000 ft
1500m à 5 km
500 à 1000 ft
800 à 1500m
200 à 500 ft
< 800m
< 200 ft
Symboles :   Orages  Brouillard  Fortes neiges  Fortes précipitations  Vent > 20 kt
SIGMETs :   Divers  Orages  Givrage  Turbulence  Onde Orograph.  Cendres Volcan.







- Altitude de l'aérodrome : 1197 ft
- Code IATA : SPM


ETAD - Spangdahlem Ab

DERNIER METAR :
  • 181256Z AUTO 16007KT 9999 SCT055 25/14 A2996 RMK AO2 SLP125 T02540136 $

METARs EXPIRÉS :
  • 181156Z AUTO 16007KT 9999 FEW050 SCT190 26/14 A2996 RMK AO2 SLP122 T02580143 10262 20170 57010 $
  • 181056Z AUTO 13004KT 9999 FEW100 FEW150 SCT190 25/15 A2997 RMK AO2 SLP126 T02470150 $

TAF TAF ETAD
Valide du 18 à 12h jusqu'au 19 à 18h UTC


181200Z 1812/1918 VRB03KT 9999 SCT050 QNH2999INS
BECMG 1817/1818 VRB05KT 9999 FEW035 BKN150 QNH2991INS
BECMG 1912/1913 20013G20KT 9999 SCT040 BKN100 QNH2986INS TX26/1813Z TN14/1904Z
Pas de NOTAMs connus pour ce terrain.



MET'MAP, la Météo Aéronautique d'un coup d'oeil ! - Copyright ORBIFLY Décembre 2007 - Disclaimer

ORBIFLY MET'MAP TEAM :

Programmation & Développement : Alexandra Zaïnal
Conception & Développement : Baudouin d'Aumeries
Co-Programmation & Développement : Marc-Olivier Méhu
Soutien technique & logistique : Manuel Goepfert

Contact : metmap@orbifly.com




SOURCES & CREDITS :

   NOAA